createdAt,value
2023-05-15T00:02:55.081Z,0.00
2023-05-15T00:07:58.035Z,0.00
2023-05-15T00:12:54.892Z,0.00
2023-05-15T00:17:54.844Z,0.00
2023-05-15T00:22:54.716Z,0.00
2023-05-15T00:27:54.781Z,0.00
2023-05-15T00:32:54.689Z,0.00
2023-05-15T00:37:54.561Z,0.00
2023-05-15T00:42:54.488Z,0.00
2023-05-15T00:47:54.443Z,0.00
2023-05-15T00:52:54.316Z,0.00
2023-05-15T00:57:54.287Z,0.00
2023-05-15T01:02:54.235Z,0.00
2023-05-15T01:07:57.172Z,0.00
2023-05-15T01:12:54.067Z,0.00
2023-05-15T01:17:54.130Z,0.00
2023-05-15T01:22:53.932Z,0.00
2023-05-15T01:27:53.887Z,0.00
2023-05-15T01:32:53.793Z,0.00
2023-05-15T01:37:53.795Z,0.00
2023-05-15T01:42:53.660Z,0.00
2023-05-15T01:47:53.707Z,0.00
2023-05-15T01:52:53.518Z,0.00
2023-05-15T01:57:53.508Z,0.00
2023-05-15T02:02:53.482Z,0.00
2023-05-15T02:07:56.396Z,0.00
2023-05-15T02:12:53.269Z,0.00
2023-05-15T02:17:53.339Z,0.00
2023-05-15T02:22:53.215Z,0.00
2023-05-15T02:27:53.359Z,0.00
2023-05-15T02:32:53.209Z,0.00
2023-05-15T02:37:53.045Z,0.00
2023-05-15T02:42:52.953Z,0.00
2023-05-15T02:47:52.948Z,0.00
2023-05-15T02:52:52.786Z,0.00
2023-05-15T02:57:52.761Z,0.00
2023-05-15T03:02:52.670Z,0.00
2023-05-15T03:07:55.665Z,0.00
2023-05-15T03:12:52.538Z,0.00
2023-05-15T03:17:52.460Z,0.00
2023-05-15T03:22:52.350Z,5.62
2023-05-15T03:27:52.359Z,5.62
2023-05-15T03:32:52.316Z,11.25
2023-05-15T03:37:52.459Z,16.88
2023-05-15T03:42:52.088Z,22.50
2023-05-15T03:47:52.117Z,28.12
2023-05-15T03:52:51.940Z,33.75
2023-05-15T03:57:51.956Z,33.75
2023-05-15T04:02:51.971Z,45.00
2023-05-15T04:07:54.828Z,45.00
2023-05-15T04:12:51.709Z,56.25
2023-05-15T04:17:51.711Z,61.88
2023-05-15T04:22:51.575Z,84.38
2023-05-15T04:27:51.562Z,95.62
2023-05-15T04:32:51.556Z,106.88
2023-05-15T04:37:51.411Z,106.88
2023-05-15T04:42:51.317Z,129.38
2023-05-15T04:47:51.440Z,140.62
2023-05-15T04:52:51.181Z,180.00
2023-05-15T04:57:51.150Z,196.88
2023-05-15T05:02:51.101Z,196.88
2023-05-15T05:07:54.023Z,236.25
2023-05-15T05:12:50.965Z,129.38
2023-05-15T05:17:50.969Z,129.38
2023-05-15T05:22:50.800Z,151.88
2023-05-15T05:27:50.776Z,146.25
2023-05-15T05:32:50.762Z,241.88
2023-05-15T05:37:50.671Z,191.25
2023-05-15T05:42:50.524Z,270.00
2023-05-15T05:47:50.627Z,382.50
2023-05-15T05:52:50.377Z,495.00
2023-05-15T05:57:50.352Z,646.88
2023-05-15T06:02:50.358Z,658.12
2023-05-15T06:07:53.223Z,894.38
2023-05-15T06:12:50.139Z,658.12
2023-05-15T06:17:50.156Z,990.00
2023-05-15T06:22:50.005Z,1687.50
2023-05-15T06:27:50.015Z,1811.25
2023-05-15T06:32:49.944Z,1732.50
2023-05-15T06:37:49.896Z,1760.62
2023-05-15T06:42:49.725Z,1929.38
2023-05-15T06:47:49.783Z,1906.88
2023-05-15T06:52:49.596Z,1985.62
2023-05-15T06:57:49.659Z,2013.75
2023-05-15T07:02:50.466Z,1996.88
2023-05-15T07:07:52.462Z,2086.88
2023-05-15T07:12:49.362Z,2193.75
2023-05-15T07:17:49.431Z,2109.38
2023-05-15T07:22:56.478Z,2131.88
2023-05-15T07:27:50.280Z,2250.00
2023-05-15T07:32:49.226Z,2283.75
2023-05-15T07:37:49.223Z,2143.12
2023-05-15T07:42:49.302Z,2390.62
2023-05-15T07:47:49.055Z,2373.75
2023-05-15T07:52:48.859Z,2520.00
2023-05-15T07:57:53.407Z,2610.00
2023-05-15T08:02:48.970Z,2407.50
2023-05-15T08:07:52.007Z,2300.62
2023-05-15T08:12:48.650Z,2306.25
2023-05-15T08:17:48.602Z,2446.88
2023-05-15T08:22:48.520Z,2283.75
2023-05-15T08:27:48.507Z,990.00
2023-05-15T08:32:48.443Z,849.38
2023-05-15T08:37:48.349Z,843.75
2023-05-15T08:42:48.236Z,759.38
2023-05-15T08:47:48.268Z,736.88
2023-05-15T08:52:48.181Z,697.50
2023-05-15T08:57:48.122Z,663.75
2023-05-15T09:02:48.290Z,630.00
2023-05-15T09:07:50.968Z,635.62
2023-05-15T09:12:47.890Z,601.88
2023-05-15T09:17:47.922Z,585.00
2023-05-15T09:22:47.783Z,562.50
2023-05-15T09:27:47.730Z,545.62
2023-05-15T09:32:47.644Z,568.12
2023-05-15T09:37:47.574Z,697.50
2023-05-15T09:42:47.496Z,860.62
2023-05-15T09:47:47.571Z,798.75
2023-05-15T09:52:47.357Z,911.25
2023-05-15T09:57:47.368Z,956.25
2023-05-15T10:02:47.250Z,855.00
2023-05-15T10:07:50.142Z,866.25
2023-05-15T10:12:48.328Z,787.50
2023-05-15T10:17:47.098Z,815.62
2023-05-15T10:22:46.923Z,894.38
2023-05-15T10:27:47.040Z,877.50
2023-05-15T10:32:46.857Z,821.25
2023-05-15T10:37:46.863Z,731.25
2023-05-15T10:42:46.783Z,871.88
2023-05-15T10:47:46.758Z,905.62
2023-05-15T10:52:46.585Z,905.62
2023-05-15T10:57:46.590Z,810.00
2023-05-15T11:02:46.442Z,731.25
2023-05-15T11:07:49.407Z,658.12
2023-05-15T11:12:46.274Z,708.75
2023-05-15T11:17:46.286Z,787.50
2023-05-15T11:22:46.181Z,680.62
2023-05-15T11:27:46.396Z,691.88
2023-05-15T11:32:46.238Z,714.38
2023-05-15T11:37:46.060Z,832.50
2023-05-15T11:42:45.871Z,832.50
2023-05-15T11:47:45.893Z,905.62
2023-05-15T11:52:45.773Z,922.50
2023-05-15T11:57:45.699Z,804.38
2023-05-15T12:02:45.677Z,815.62
2023-05-15T12:07:48.598Z,708.75
2023-05-15T12:12:45.510Z,573.75
2023-05-15T12:17:45.534Z,680.62
2023-05-15T12:22:45.360Z,658.12
2023-05-15T12:27:45.421Z,663.75
2023-05-15T12:32:45.302Z,596.25
2023-05-15T12:37:45.220Z,618.75
2023-05-15T12:42:45.133Z,646.88
2023-05-15T12:47:45.375Z,691.88
2023-05-15T12:52:45.035Z,810.00
2023-05-15T12:57:44.996Z,821.25
2023-05-15T13:02:44.940Z,826.88
2023-05-15T13:07:47.807Z,905.62
2023-05-15T13:12:44.747Z,911.25
2023-05-15T13:17:44.769Z,838.12
2023-05-15T13:22:44.622Z,686.25
2023-05-15T13:27:44.590Z,590.62
2023-05-15T13:32:44.551Z,613.12
2023-05-15T13:37:44.473Z,641.25
2023-05-15T13:42:44.318Z,714.38
2023-05-15T13:47:44.374Z,708.75
2023-05-15T13:52:44.241Z,798.75
2023-05-15T13:57:44.269Z,725.62
2023-05-15T14:02:44.135Z,714.38
2023-05-15T14:07:47.098Z,691.88
2023-05-15T14:12:44.003Z,652.50
2023-05-15T14:17:44.028Z,601.88
2023-05-15T14:22:43.934Z,506.25
2023-05-15T14:27:43.861Z,534.38
2023-05-15T14:32:43.773Z,601.88
2023-05-15T14:37:43.679Z,708.75
2023-05-15T14:42:43.588Z,759.38
2023-05-15T14:47:43.568Z,703.12
2023-05-15T14:52:43.402Z,658.12
2023-05-15T14:57:43.612Z,669.38
2023-05-15T15:02:43.394Z,720.00
2023-05-15T15:07:46.302Z,736.88
2023-05-15T15:12:43.155Z,427.50
2023-05-15T15:17:43.179Z,421.88
2023-05-15T15:22:43.086Z,450.00
2023-05-15T15:27:43.005Z,759.38
2023-05-15T15:32:42.928Z,568.12
2023-05-15T15:37:42.874Z,573.75
2023-05-15T15:42:42.787Z,433.12
2023-05-15T15:47:42.773Z,371.25
2023-05-15T15:52:42.672Z,326.25
2023-05-15T15:57:42.619Z,258.75
2023-05-15T16:02:42.610Z,292.50
2023-05-15T16:07:45.696Z,315.00
2023-05-15T16:12:42.731Z,298.12
2023-05-15T16:17:42.530Z,281.25
2023-05-15T16:22:42.408Z,202.50
2023-05-15T16:27:42.604Z,168.75
2023-05-15T16:32:42.215Z,140.62
2023-05-15T16:37:42.147Z,123.75
2023-05-15T16:42:42.006Z,118.12
2023-05-15T16:47:42.087Z,106.88
2023-05-15T16:52:41.901Z,101.25
2023-05-15T16:57:41.832Z,118.12
2023-05-15T17:02:41.880Z,129.38
2023-05-15T17:07:44.732Z,151.88
2023-05-15T17:12:41.600Z,135.00
2023-05-15T17:17:41.634Z,129.38
2023-05-15T17:22:41.460Z,118.12
2023-05-15T17:27:41.510Z,129.38
2023-05-15T17:32:41.426Z,174.38
2023-05-15T17:37:41.293Z,174.38
2023-05-15T17:42:41.236Z,157.50
2023-05-15T17:47:41.169Z,135.00
2023-05-15T17:52:41.075Z,101.25
2023-05-15T17:57:41.074Z,78.75
2023-05-15T18:02:40.957Z,61.88
2023-05-15T18:07:43.898Z,45.00
2023-05-15T18:12:40.814Z,28.12
2023-05-15T18:17:40.781Z,22.50
2023-05-15T18:22:40.671Z,16.88
2023-05-15T18:27:40.972Z,16.88
2023-05-15T18:32:40.603Z,16.88
2023-05-15T18:37:40.567Z,16.88
2023-05-15T18:42:40.438Z,11.25
2023-05-15T18:47:40.451Z,5.62
2023-05-15T18:52:40.409Z,5.62
2023-05-15T18:57:40.439Z,0.00
2023-05-15T19:02:40.442Z,0.00
2023-05-15T19:07:43.274Z,0.00
2023-05-15T19:12:40.072Z,0.00
2023-05-15T19:17:40.068Z,0.00
2023-05-15T19:22:39.940Z,0.00
2023-05-15T19:27:39.928Z,0.00
2023-05-15T19:32:39.962Z,0.00
2023-05-15T19:37:40.525Z,0.00
2023-05-15T19:42:39.668Z,0.00
2023-05-15T19:47:39.656Z,0.00
2023-05-15T19:52:39.509Z,0.00
2023-05-15T19:57:39.547Z,0.00
2023-05-15T20:02:39.443Z,0.00
2023-05-15T20:07:42.387Z,0.00
2023-05-15T20:12:39.356Z,0.00
2023-05-15T20:17:39.280Z,0.00
2023-05-15T20:22:39.117Z,0.00
2023-05-15T20:27:39.290Z,0.00
2023-05-15T20:32:39.207Z,0.00
2023-05-15T20:37:39.052Z,0.00
2023-05-15T20:42:38.924Z,0.00
2023-05-15T20:47:40.019Z,0.00
2023-05-15T20:52:38.730Z,0.00
2023-05-15T20:57:38.685Z,0.00
2023-05-15T21:02:38.627Z,0.00
2023-05-15T21:07:41.583Z,0.00
2023-05-15T21:12:38.479Z,0.00
2023-05-15T21:17:38.450Z,0.00
2023-05-15T21:22:38.306Z,0.00
2023-05-15T21:27:38.291Z,0.00
2023-05-15T21:32:38.284Z,0.00
2023-05-15T21:37:38.186Z,0.00
2023-05-15T21:42:38.040Z,0.00
2023-05-15T21:47:38.065Z,0.00
2023-05-15T21:52:37.898Z,0.00
2023-05-15T21:57:37.990Z,0.00
2023-05-15T22:02:37.904Z,0.00
2023-05-15T22:07:40.737Z,0.00
2023-05-15T22:12:37.672Z,0.00
2023-05-15T22:17:37.770Z,0.00
2023-05-15T22:22:37.625Z,0.00
2023-05-15T22:27:37.593Z,0.00
2023-05-15T22:32:37.565Z,0.00
2023-05-15T22:37:37.478Z,0.00
2023-05-15T22:42:37.316Z,0.00
2023-05-15T22:47:37.361Z,0.00
2023-05-15T22:52:37.229Z,0.00
2023-05-15T22:57:37.231Z,0.00
2023-05-15T23:02:37.110Z,0.00
2023-05-15T23:07:40.427Z,0.00
2023-05-15T23:12:36.990Z,0.00
2023-05-15T23:17:36.969Z,0.00
2023-05-15T23:22:36.773Z,0.00
2023-05-15T23:27:36.766Z,0.00
2023-05-15T23:32:36.687Z,0.00
2023-05-15T23:37:36.628Z,0.00
2023-05-15T23:42:36.521Z,0.00
2023-05-15T23:47:36.608Z,0.00
2023-05-15T23:52:36.401Z,0.00
2023-05-15T23:57:36.430Z,0.00
